Viacha, Bolivia
Current Conditions -  °F | °C
As of 9:00 AM on Saturday 20 Dec 2014 (Local Time) from SLLP Reporting Station
Broken Clouds Broken Clouds  
Wind Chill: 54°   Ceiling: 20000
Heat Index: 54°   Visibility: 6mi
Dew Point: 41°   Wind: 6mph
Humidity: 62%   Direction: 290°WNW
Pressure: 30.53"   Gusts: NA
Location:  16.65°S, 68.3°W
Report Text: SLLP 201300Z 29005KT 200V350 9999 SCT015 BKN200 12/05 Q1034
Loading
Personal Weather Stations






























Interactive Weather Map New forecast layout! Learn more

10-Day Weather Forecast

Advertisements
Track Severe Weather on mobile